Time;durP1;ratioP1;P1;durP2;ratioP2;P2;SDS_P1;SDS_P2;PMS_P1;PMS_P2;Temp;Humidity;BMP_temperature;BMP_pressure;BME280_temperature;BME280_humidity;BME280_pressure;Samples;Min_cycle;Max_cycle;Signal;HPM_P1;HPM_P2
2023/10/31 16:24:13;;;;;;;;;;;;;;;;;;5080720;23;20297;-78
2023/10/31 16:26:40;;;;;;;;;;;;;;;;;;5016728;28;19933;-78
2023/10/31 17:15:51;;;;;;;;;;;;;;;;;;5471907;22;20454;-74
2023/10/31 17:18:18;;;;;;;;;;;;;;;;;;5016550;28;19925;-74
2023/10/31 17:20:47;;;;;;;;;;;;;;;;;;5016652;28;19933;-75
2023/10/31 17:23:14;;;;;;;;;;;;;;;;;;5016384;28;20382;-75
2023/10/31 17:25:42;;;;;;;;;;;;;;;;;;5016467;28;19930;-75
2023/10/31 17:28:09;;;;;;;;;;;;;;;;;;5016463;28;19925;-75
2023/10/31 17:30:35;;;;;;;;;;;;;;;;;;5040366;23;19926;-77
2023/10/31 17:33:02;;;;;;;;;;;;;;;;;;5016560;28;19926;-74
2023/10/31 17:35:29;;;;;;;;;;;;;;;;;;5016527;28;19933;-74
2023/10/31 17:37:56;;;;;;;;;;;;;;;;;;5016332;28;19925;-74
2023/10/31 17:40:23;;;;;;;;;;;;;;;;;;5016376;28;19925;-75
2023/10/31 17:42:50;;;;;;;;;;;;;;;;;;5016322;28;19948;-74
2023/10/31 17:45:17;;;;;;;;;;;;;;;;;;5016349;28;19925;-75
2023/10/31 17:47:44;;;;;;;;;;;;;;;;;;5016507;28;20019;-75
2023/10/31 17:50:11;;;;;;;;;;;;;;;;;;5015977;28;20275;-75
2023/10/31 17:52:38;;;;;;;;;;;;;;;;;;5016147;28;19936;-75
2023/10/31 17:55:05;;;;;;;;;;;;;;;;;;5016218;28;20271;-75
2023/10/31 17:57:32;;;;;;;;;;;;;;;;;;5016297;28;19932;-75
2023/10/31 17:59:59;;;;;;;;;;;;;;;;;;5016151;28;20394;-75
2023/10/31 18:02:25;;;;;;;;;;;;;;;;;;5016450;28;19926;-75
2023/10/31 18:04:52;;;;;;;;;;;;;;;;;;5018394;28;20378;-73
2023/10/31 18:07:21;;;;;;;;;;;;;;;;;;5019625;28;20387;-73
2023/10/31 18:09:48;;;;;;;;;;;;;;;;;;5019223;28;19965;-73
2023/10/31 18:12:17;;;;;;;;;;;;;;;;;;5017816;28;19976;-73
2023/10/31 18:14:43;;;;;;;;;;;;;;;;;;5016656;28;19948;-73
2023/10/31 18:17:10;;;;;;;;;;;;;;;;;;5016327;28;19932;-74
2023/10/31 18:19:37;;;;;;;;;;;;;;;;;;5016334;28;19926;-74
2023/10/31 18:22:04;;;;;;;;;;;;;;;;;;5016229;28;20294;-74
2023/10/31 18:24:31;;;;;;;;;;;;;;;;;;5016447;28;19932;-73
2023/10/31 18:26:58;;;;;;;;;;;;;;;;;;5016554;28;19929;-74
2023/10/31 18:29:25;;;;;;;;;;;;;;;;;;5016457;28;19926;-73
2023/10/31 18:31:52;;;;;;;;;;;;;;;;;;5016448;28;19925;-74
2023/10/31 18:34:19;;;;;;;;;;;;;;;;;;5016345;28;19975;-72
2023/10/31 18:36:46;;;;;;;;;;;;;;;;;;5015992;28;19925;-73
2023/10/31 18:39:13;;;;;;;;;;;;;;;;;;5016140;28;19926;-75
2023/10/31 18:41:42;;;;;;;;;;;;;;;;;;5016016;28;20001;-72
2023/10/31 18:44:09;;;;;;;;;;;;;;;;;;5015858;28;19984;-73
2023/10/31 18:46:36;;;;;;;;;;;;;;;;;;5016148;28;20024;-73
2023/10/31 18:49:03;;;;;;;;;;;;;;;;;;5016234;28;19925;-73
2023/10/31 18:51:30;;;;;;;;;;;;;;;;;;5015790;28;19931;-72
2023/10/31 18:53:57;;;;;;;;;;;;;;;;;;5015781;28;19933;-72
2023/10/31 18:56:23;;;;;;;;;;;;;;;;;;5016152;28;19925;-72
2023/10/31 18:58:50;;;;;;;;;;;;;;;;;;5015938;28;19933;-73
2023/10/31 19:01:18;;;;;;;;;;;;;;;;;;5016003;28;19934;-72
2023/10/31 19:03:45;;;;;;;;;;;;;;;;;;5015308;28;20016;-71
2023/10/31 19:06:12;;;;;;;;;;;;;;;;;;5015694;28;20371;-71
2023/10/31 19:08:39;;;;;;;;;;;;;;;;;;5015673;28;19929;-72
2023/10/31 19:11:06;;;;;;;;;;;;;;;;;;5015510;28;20306;-72
2023/10/31 19:13:33;;;;;;;;;;;;;;;;;;5015493;28;19925;-72
2023/10/31 19:15:59;;;;;;;;;;;;;;;;;;5015765;28;19925;-72
2023/10/31 19:18:26;;;;;;;;;;;;;;;;;;5016665;28;19925;-73
2023/10/31 19:20:53;;;;;;;;;;;;;;;;;;5016304;28;19932;-73
2023/10/31 19:23:20;;;;;;;;;;;;;;;;;;5016013;28;19933;-72
2023/10/31 19:25:48;;;;;;;;;;;;;;;;;;5016098;28;19926;-73
2023/10/31 19:28:15;;;;;;;;;;;;;;;;;;5015382;28;19926;-73
2023/10/31 19:30:42;;;;;;;;;;;;;;;;;;5015279;28;19926;-73
2023/10/31 19:33:09;;;;;;;;;;;;;;;;;;5015709;28;19929;-72
2023/10/31 19:35:36;;;;;;;;;;;;;;;;;;5015527;28;20379;-72
2023/10/31 19:38:03;;;;;;;;;;;;;;;;;;5015648;28;19925;-72
2023/10/31 19:40:31;;;;;;;;;;;;;;;;;;5015679;28;20405;-73
2023/10/31 19:42:58;;;;;;;;;;;;;;;;;;5016299;28;19931;-74
2023/10/31 19:45:25;;;;;;;;;;;;;;;;;;5015855;28;19933;-73
2023/10/31 19:47:52;;;;;;;;;;;;;;;;;;5015018;28;19925;-73
2023/10/31 19:50:20;;;;;;;;;;;;;;;;;;5015456;28;19930;-72
2023/10/31 19:52:47;;;;;;;;;;;;;;;;;;5015744;28;19948;-73
2023/10/31 19:55:16;;;;;;;;;;;;;;;;;;5016507;28;19925;-73
2023/10/31 19:57:44;;;;;;;;;;;;;;;;;;5016167;28;19972;-72
2023/10/31 20:00:11;;;;;;;;;;;;;;;;;;5016690;28;19926;-73
2023/10/31 20:02:38;;;;;;;;;;;;;;;;;;5016256;28;19932;-73
2023/10/31 20:05:04;;;;;;;;;;;;;;;;;;5016028;28;19936;-72
2023/10/31 20:07:31;;;;;;;;;;;;;;;;;;5015013;28;19932;-72
2023/10/31 20:09:58;;;;;;;;;;;;;;;;;;5015759;28;20001;-72
2023/10/31 20:12:25;;;;;;;;;;;;;;;;;;5015169;28;19933;-72
2023/10/31 20:14:52;;;;;;;;;;;;;;;;;;5015115;28;19933;-72
2023/10/31 20:17:19;;;;;;;;;;;;;;;;;;5018348;28;20444;-73
2023/10/31 20:19:46;;;;;;;;;;;;;;;;;;5019140;28;19925;-72
2023/10/31 20:22:13;;;;;;;;;;;;;;;;;;5019006;28;20279;-72
2023/10/31 20:24:40;;;;;;;;;;;;;;;;;;5018791;28;19930;-74
2023/10/31 20:27:07;;;;;;;;;;;;;;;;;;5018811;28;19925;-72
2023/10/31 20:29:34;;;;;;;;;;;;;;;;;;5019095;28;20379;-72
2023/10/31 20:32:01;;;;;;;;;;;;;;;;;;5018883;28;19932;-73
2023/10/31 20:34:28;;;;;;;;;;;;;;;;;;5018855;28;19949;-73
2023/10/31 20:36:54;;;;;;;;;;;;;;;;;;5018699;28;19977;-73
2023/10/31 20:39:21;;;;;;;;;;;;;;;;;;5018504;28;19948;-73
2023/10/31 20:41:48;;;;;;;;;;;;;;;;;;5018415;28;20394;-72
2023/10/31 20:44:14;;;;;;;;;;;;;;;;;;5018614;28;19932;-73
2023/10/31 20:46:42;;;;;;;;;;;;;;;;;;5018530;28;20001;-72
2023/10/31 20:49:09;;;;;;;;;;;;;;;;;;5017987;28;19933;-72
2023/10/31 20:51:36;;;;;;;;;;;;;;;;;;5017837;28;19929;-72
2023/10/31 20:54:03;;;;;;;;;;;;;;;;;;5017886;28;20405;-72
2023/10/31 20:56:30;;;;;;;;;;;;;;;;;;5018201;28;19929;-73
2023/10/31 20:58:57;;;;;;;;;;;;;;;;;;5018107;28;19926;-74
2023/10/31 21:01:25;;;;;;;;;;;;;;;;;;5017986;28;19926;-74
2023/10/31 21:03:52;;;;;;;;;;;;;;;;;;5017919;28;20027;-72
2023/10/31 21:06:20;;;;;;;;;;;;;;;;;;5018182;28;19933;-71
2023/10/31 21:08:47;;;;;;;;;;;;;;;;;;5018000;28;20383;-72
2023/10/31 21:11:14;;;;;;;;;;;;;;;;;;5018533;28;19926;-76
2023/10/31 21:13:41;;;;;;;;;;;;;;;;;;5018870;28;20382;-75
2023/10/31 21:16:08;;;;;;;;;;;;;;;;;;5019563;28;19933;-76
2023/10/31 21:18:35;;;;;;;;;;;;;;;;;;5019231;28;19984;-75
2023/10/31 21:21:02;;;;;;;;;;;;;;;;;;5019113;28;19926;-76
2023/10/31 21:23:29;;;;;;;;;;;;;;;;;;5019409;28;19933;-76
2023/10/31 21:25:57;;;;;;;;;;;;;;;;;;5019049;28;20301;-75
2023/10/31 21:28:24;;;;;;;;;;;;;;;;;;5019634;28;19953;-76
2023/10/31 21:30:52;;;;;;;;;;;;;;;;;;5019372;28;19929;-76
2023/10/31 21:33:19;;;;;;;;;;;;;;;;;;5019713;28;20337;-76
2023/10/31 21:35:46;;;;;;;;;;;;;;;;;;5020880;28;19980;-77
2023/10/31 21:38:13;;;;;;;;;;;;;;;;;;5020576;28;19991;-76
2023/10/31 21:40:40;;;;;;;;;;;;;;;;;;5019792;28;19976;-76
2023/10/31 21:43:07;;;;;;;;;;;;;;;;;;5019419;28;20379;-76
2023/10/31 21:45:34;;;;;;;;;;;;;;;;;;5019313;28;19926;-76
2023/10/31 21:48:05;;;;;;;;;;;;;;;;;;5018884;28;19926;-77
2023/10/31 21:50:32;;;;;;;;;;;;;;;;;;5020184;28;20021;-76
2023/10/31 21:52:59;;;;;;;;;;;;;;;;;;5019505;28;19933;-77
2023/10/31 21:55:26;;;;;;;;;;;;;;;;;;5019278;28;20386;-76
2023/10/31 21:57:53;;;;;;;;;;;;;;;;;;5019009;28;19926;-76
2023/10/31 22:00:20;;;;;;;;;;;;;;;;;;5019242;28;19929;-77
2023/10/31 22:02:47;;;;;;;;;;;;;;;;;;5019076;28;19933;-74
2023/10/31 22:05:14;;;;;;;;;;;;;;;;;;5018555;28;19925;-76
2023/10/31 22:07:41;;;;;;;;;;;;;;;;;;5019055;28;19926;-77
2023/10/31 22:10:08;;;;;;;;;;;;;;;;;;5019865;28;19932;-78
2023/10/31 22:12:35;;;;;;;;;;;;;;;;;;5019165;28;20235;-78
2023/10/31 22:15:04;;;;;;;;;;;;;;;;;;5017188;28;19932;-78
2023/10/31 22:17:30;;;;;;;;;;;;;;;;;;5017811;28;20013;-78
2023/10/31 22:20:00;;;;;;;;;;;;;;;;;;5016129;28;19976;-77
2023/10/31 22:22:27;;;;;;;;;;;;;;;;;;5016197;28;19932;-77
2023/10/31 22:24:54;;;;;;;;;;;;;;;;;;5015762;28;20004;-77
2023/10/31 22:27:21;;;;;;;;;;;;;;;;;;5015637;28;19929;-77
2023/10/31 22:29:47;;;;;;;;;;;;;;;;;;5015471;28;19948;-77
2023/10/31 22:32:14;;;;;;;;;;;;;;;;;;5016837;28;19933;-78
2023/10/31 22:34:41;;;;;;;;;;;;;;;;;;5016384;28;19926;-76
2023/10/31 22:37:08;;;;;;;;;;;;;;;;;;5017718;28;19925;-78
2023/10/31 22:39:36;;;;;;;;;;;;;;;;;;5017647;28;19932;-77
2023/10/31 22:42:03;;;;;;;;;;;;;;;;;;5020451;28;19971;-77
